sensor_id;sensor_type;location;lat;lon;timestamp;temperature;humidity
8400;DHT22;4237;47.030;15.396;2023-11-18T00:00:21;5.10;99.90
8400;DHT22;4237;47.030;15.396;2023-11-18T00:02:53;4.90;99.90
8400;DHT22;4237;47.030;15.396;2023-11-18T00:05:21;4.80;99.90
8400;DHT22;4237;47.030;15.396;2023-11-18T00:07:51;4.80;99.90
8400;DHT22;4237;47.030;15.396;2023-11-18T00:10:20;4.50;99.90
8400;DHT22;4237;47.030;15.396;2023-11-18T00:12:48;4.30;99.90
8400;DHT22;4237;47.030;15.396;2023-11-18T00:15:17;4.20;99.90
8400;DHT22;4237;47.030;15.396;2023-11-18T00:17:47;4.00;99.90
8400;DHT22;4237;47.030;15.396;2023-11-18T00:20:16;4.00;99.90
8400;DHT22;4237;47.030;15.396;2023-11-18T00:22:46;4.00;99.90
8400;DHT22;4237;47.030;15.396;2023-11-18T00:25:14;4.00;99.90
8400;DHT22;4237;47.030;15.396;2023-11-18T00:27:43;3.80;99.90
8400;DHT22;4237;47.030;15.396;2023-11-18T00:30:12;3.60;99.90
8400;DHT22;4237;47.030;15.396;2023-11-18T00:32:40;3.50;99.90
8400;DHT22;4237;47.030;15.396;2023-11-18T00:35:09;3.50;99.90
8400;DHT22;4237;47.030;15.396;2023-11-18T00:37:38;3.40;99.90
8400;DHT22;4237;47.030;15.396;2023-11-18T00:40:08;3.40;99.90
8400;DHT22;4237;47.030;15.396;2023-11-18T00:42:37;3.30;99.90
8400;DHT22;4237;47.030;15.396;2023-11-18T00:45:07;3.30;99.90
8400;DHT22;4237;47.030;15.396;2023-11-18T00:47:36;3.20;99.90
8400;DHT22;4237;47.030;15.396;2023-11-18T00:50:05;3.10;99.90
8400;DHT22;4237;47.030;15.396;2023-11-18T00:52:36;3.10;99.90
8400;DHT22;4237;47.030;15.396;2023-11-18T00:55:09;3.00;99.90
8400;DHT22;4237;47.030;15.396;2023-11-18T00:57:41;2.90;99.90
8400;DHT22;4237;47.030;15.396;2023-11-18T01:00:12;2.80;99.90
8400;DHT22;4237;47.030;15.396;2023-11-18T01:02:48;2.80;99.90
8400;DHT22;4237;47.030;15.396;2023-11-18T01:05:17;2.70;99.90
8400;DHT22;4237;47.030;15.396;2023-11-18T01:07:46;2.60;99.90
8400;DHT22;4237;47.030;15.396;2023-11-18T01:10:14;2.90;99.90
8400;DHT22;4237;47.030;15.396;2023-11-18T01:12:43;3.00;99.90
8400;DHT22;4237;47.030;15.396;2023-11-18T01:15:12;2.80;99.90
8400;DHT22;4237;47.030;15.396;2023-11-18T01:17:45;2.60;99.90
8400;DHT22;4237;47.030;15.396;2023-11-18T01:20:13;2.50;99.90
8400;DHT22;4237;47.030;15.396;2023-11-18T01:22:44;2.40;99.90
8400;DHT22;4237;47.030;15.396;2023-11-18T01:25:13;2.50;99.90
8400;DHT22;4237;47.030;15.396;2023-11-18T01:27:44;2.50;99.90
8400;DHT22;4237;47.030;15.396;2023-11-18T01:30:15;2.50;99.90
8400;DHT22;4237;47.030;15.396;2023-11-18T01:32:44;2.60;99.90
8400;DHT22;4237;47.030;15.396;2023-11-18T01:35:13;2.60;99.90
8400;DHT22;4237;47.030;15.396;2023-11-18T01:37:42;2.70;99.90
8400;DHT22;4237;47.030;15.396;2023-11-18T01:40:11;2.90;99.90
8400;DHT22;4237;47.030;15.396;2023-11-18T01:42:47;2.90;99.90
8400;DHT22;4237;47.030;15.396;2023-11-18T01:45:14;2.90;99.90
8400;DHT22;4237;47.030;15.396;2023-11-18T01:47:45;2.90;99.90
8400;DHT22;4237;47.030;15.396;2023-11-18T01:50:17;2.80;99.90
8400;DHT22;4237;47.030;15.396;2023-11-18T01:52:46;2.80;99.90
8400;DHT22;4237;47.030;15.396;2023-11-18T01:55:15;2.80;99.90
8400;DHT22;4237;47.030;15.396;2023-11-18T01:57:44;2.80;99.90
8400;DHT22;4237;47.030;15.396;2023-11-18T02:00:13;3.00;99.90
8400;DHT22;4237;47.030;15.396;2023-11-18T02:02:44;3.00;99.90
8400;DHT22;4237;47.030;15.396;2023-11-18T02:05:12;3.00;99.90
8400;DHT22;4237;47.030;15.396;2023-11-18T02:07:41;3.20;99.90
8400;DHT22;4237;47.030;15.396;2023-11-18T02:10:11;3.10;99.90
8400;DHT22;4237;47.030;15.396;2023-11-18T02:15:30;3.00;99.90
8400;DHT22;4237;47.030;15.396;2023-11-18T02:18:06;3.00;99.90
8400;DHT22;4237;47.030;15.396;2023-11-18T02:20:31;3.10;99.90
8400;DHT22;4237;47.030;15.396;2023-11-18T02:23:01;3.10;99.90
8400;DHT22;4237;47.030;15.396;2023-11-18T02:25:32;3.00;99.90
8400;DHT22;4237;47.030;15.396;2023-11-18T02:28:01;2.90;99.90
8400;DHT22;4237;47.030;15.396;2023-11-18T02:30:30;2.90;99.90
8400;DHT22;4237;47.030;15.396;2023-11-18T02:35:54;2.80;99.90
8400;DHT22;4237;47.030;15.396;2023-11-18T02:38:29;3.10;99.90
8400;DHT22;4237;47.030;15.396;2023-11-18T02:41:01;3.10;99.90
8400;DHT22;4237;47.030;15.396;2023-11-18T02:43:33;3.30;99.90
8400;DHT22;4237;47.030;15.396;2023-11-18T02:46:08;3.40;99.90
8400;DHT22;4237;47.030;15.396;2023-11-18T02:48:39;3.40;99.90
8400;DHT22;4237;47.030;15.396;2023-11-18T02:51:10;3.40;99.90
8400;DHT22;4237;47.030;15.396;2023-11-18T02:53:39;3.40;99.90
8400;DHT22;4237;47.030;15.396;2023-11-18T02:56:09;3.40;99.90
8400;DHT22;4237;47.030;15.396;2023-11-18T02:58:37;3.40;99.90
8400;DHT22;4237;47.030;15.396;2023-11-18T03:01:06;3.50;99.90
8400;DHT22;4237;47.030;15.396;2023-11-18T03:03:34;3.60;99.90
8400;DHT22;4237;47.030;15.396;2023-11-18T03:06:05;3.60;99.90
8400;DHT22;4237;47.030;15.396;2023-11-18T03:08:33;3.70;99.90
8400;DHT22;4237;47.030;15.396;2023-11-18T03:11:04;3.70;99.90
8400;DHT22;4237;47.030;15.396;2023-11-18T03:13:32;3.80;99.90
8400;DHT22;4237;47.030;15.396;2023-11-18T03:16:01;3.70;99.90
8400;DHT22;4237;47.030;15.396;2023-11-18T03:18:31;3.70;99.90
8400;DHT22;4237;47.030;15.396;2023-11-18T03:20:59;3.60;99.90
8400;DHT22;4237;47.030;15.396;2023-11-18T03:23:28;3.50;99.90
8400;DHT22;4237;47.030;15.396;2023-11-18T03:25:56;3.40;99.90
8400;DHT22;4237;47.030;15.396;2023-11-18T03:28:25;3.30;99.90
8400;DHT22;4237;47.030;15.396;2023-11-18T03:30:54;3.20;99.90
8400;DHT22;4237;47.030;15.396;2023-11-18T03:33:22;3.10;99.90
8400;DHT22;4237;47.030;15.396;2023-11-18T03:35:51;2.90;99.90
8400;DHT22;4237;47.030;15.396;2023-11-18T03:38:19;2.70;99.90
8400;DHT22;4237;47.030;15.396;2023-11-18T03:40:49;2.60;99.90
8400;DHT22;4237;47.030;15.396;2023-11-18T03:43:19;2.60;99.90
8400;DHT22;4237;47.030;15.396;2023-11-18T03:45:48;2.50;99.90
8400;DHT22;4237;47.030;15.396;2023-11-18T03:48:17;2.50;99.90
8400;DHT22;4237;47.030;15.396;2023-11-18T03:50:46;2.40;99.90
8400;DHT22;4237;47.030;15.396;2023-11-18T03:53:14;2.40;99.90
8400;DHT22;4237;47.030;15.396;2023-11-18T03:55:43;2.40;99.90
8400;DHT22;4237;47.030;15.396;2023-11-18T03:58:12;2.40;99.90
8400;DHT22;4237;47.030;15.396;2023-11-18T04:00:43;2.50;99.90
8400;DHT22;4237;47.030;15.396;2023-11-18T04:03:12;2.50;99.90
8400;DHT22;4237;47.030;15.396;2023-11-18T04:05:40;2.50;99.90
8400;DHT22;4237;47.030;15.396;2023-11-18T04:08:12;2.40;99.90
8400;DHT22;4237;47.030;15.396;2023-11-18T04:10:40;2.30;99.90
8400;DHT22;4237;47.030;15.396;2023-11-18T04:13:09;2.30;99.90
8400;DHT22;4237;47.030;15.396;2023-11-18T04:15:37;2.20;99.90
8400;DHT22;4237;47.030;15.396;2023-11-18T04:18:06;2.20;99.90
8400;DHT22;4237;47.030;15.396;2023-11-18T04:20:34;2.20;99.90
8400;DHT22;4237;47.030;15.396;2023-11-18T04:23:04;2.20;99.90
8400;DHT22;4237;47.030;15.396;2023-11-18T04:25:32;2.20;99.90
8400;DHT22;4237;47.030;15.396;2023-11-18T04:28:02;2.20;99.90
8400;DHT22;4237;47.030;15.396;2023-11-18T04:30:31;2.30;99.90
8400;DHT22;4237;47.030;15.396;2023-11-18T04:33:00;2.40;99.90
8400;DHT22;4237;47.030;15.396;2023-11-18T04:35:29;2.50;99.90
8400;DHT22;4237;47.030;15.396;2023-11-18T04:37:58;2.60;99.90
8400;DHT22;4237;47.030;15.396;2023-11-18T04:40:26;2.60;99.90
8400;DHT22;4237;47.030;15.396;2023-11-18T04:43:14;2.60;99.90
8400;DHT22;4237;47.030;15.396;2023-11-18T04:45:43;2.70;99.90
8400;DHT22;4237;47.030;15.396;2023-11-18T04:48:12;2.60;99.90
8400;DHT22;4237;47.030;15.396;2023-11-18T04:50:43;2.60;99.90
8400;DHT22;4237;47.030;15.396;2023-11-18T04:53:12;2.60;99.90
8400;DHT22;4237;47.030;15.396;2023-11-18T04:55:40;2.60;99.90
8400;DHT22;4237;47.030;15.396;2023-11-18T04:58:09;2.70;99.90
8400;DHT22;4237;47.030;15.396;2023-11-18T05:00:38;2.60;99.90
8400;DHT22;4237;47.030;15.396;2023-11-18T05:03:06;2.60;99.90
8400;DHT22;4237;47.030;15.396;2023-11-18T05:05:37;2.70;99.90
8400;DHT22;4237;47.030;15.396;2023-11-18T05:08:06;2.70;99.90
8400;DHT22;4237;47.030;15.396;2023-11-18T05:10:36;2.90;99.90
8400;DHT22;4237;47.030;15.396;2023-11-18T05:13:05;2.70;99.90
8400;DHT22;4237;47.030;15.396;2023-11-18T05:15:34;2.70;99.90
8400;DHT22;4237;47.030;15.396;2023-11-18T05:18:04;2.70;99.90
8400;DHT22;4237;47.030;15.396;2023-11-18T05:20:35;2.90;99.90
8400;DHT22;4237;47.030;15.396;2023-11-18T05:23:04;2.90;99.90
8400;DHT22;4237;47.030;15.396;2023-11-18T05:25:33;2.70;99.90
8400;DHT22;4237;47.030;15.396;2023-11-18T05:28:02;2.60;99.90
8400;DHT22;4237;47.030;15.396;2023-11-18T05:30:32;2.50;99.90
8400;DHT22;4237;47.030;15.396;2023-11-18T05:33:03;2.50;99.90
8400;DHT22;4237;47.030;15.396;2023-11-18T05:35:37;2.50;99.90
8400;DHT22;4237;47.030;15.396;2023-11-18T05:38:06;2.50;99.90
8400;DHT22;4237;47.030;15.396;2023-11-18T05:40:34;2.40;99.90
8400;DHT22;4237;47.030;15.396;2023-11-18T05:43:04;2.40;99.90
8400;DHT22;4237;47.030;15.396;2023-11-18T05:45:34;2.30;99.90
8400;DHT22;4237;47.030;15.396;2023-11-18T05:48:06;2.30;99.90
8400;DHT22;4237;47.030;15.396;2023-11-18T05:50:35;2.20;99.90
8400;DHT22;4237;47.030;15.396;2023-11-18T05:53:05;2.30;99.90
8400;DHT22;4237;47.030;15.396;2023-11-18T05:55:33;2.30;99.90
8400;DHT22;4237;47.030;15.396;2023-11-18T05:58:02;2.40;99.90
8400;DHT22;4237;47.030;15.396;2023-11-18T06:00:30;2.50;99.90
8400;DHT22;4237;47.030;15.396;2023-11-18T06:02:59;2.50;99.90
8400;DHT22;4237;47.030;15.396;2023-11-18T06:05:28;2.60;99.90
8400;DHT22;4237;47.030;15.396;2023-11-18T06:07:57;2.50;99.90
8400;DHT22;4237;47.030;15.396;2023-11-18T06:10:26;2.50;99.90
8400;DHT22;4237;47.030;15.396;2023-11-18T06:12:55;2.40;99.90
8400;DHT22;4237;47.030;15.396;2023-11-18T06:15:25;2.30;99.90
8400;DHT22;4237;47.030;15.396;2023-11-18T06:17:55;2.30;99.90
8400;DHT22;4237;47.030;15.396;2023-11-18T06:20:23;2.30;99.90
8400;DHT22;4237;47.030;15.396;2023-11-18T06:22:52;2.20;99.90
8400;DHT22;4237;47.030;15.396;2023-11-18T06:25:21;2.40;99.90
8400;DHT22;4237;47.030;15.396;2023-11-18T06:27:51;2.50;99.90
8400;DHT22;4237;47.030;15.396;2023-11-18T06:30:22;2.70;99.90
8400;DHT22;4237;47.030;15.396;2023-11-18T06:32:51;2.70;99.90
8400;DHT22;4237;47.030;15.396;2023-11-18T06:35:20;2.60;99.90
8400;DHT22;4237;47.030;15.396;2023-11-18T06:37:49;2.60;99.90
8400;DHT22;4237;47.030;15.396;2023-11-18T06:40:21;2.70;99.90
8400;DHT22;4237;47.030;15.396;2023-11-18T06:42:52;2.80;99.90
8400;DHT22;4237;47.030;15.396;2023-11-18T06:45:22;2.70;99.90
8400;DHT22;4237;47.030;15.396;2023-11-18T06:47:50;2.80;99.90
8400;DHT22;4237;47.030;15.396;2023-11-18T06:50:19;2.80;99.90
8400;DHT22;4237;47.030;15.396;2023-11-18T06:52:49;2.90;99.90
8400;DHT22;4237;47.030;15.396;2023-11-18T06:55:18;3.00;99.90
8400;DHT22;4237;47.030;15.396;2023-11-18T06:57:47;3.40;99.90
8400;DHT22;4237;47.030;15.396;2023-11-18T07:00:16;4.30;99.90
8400;DHT22;4237;47.030;15.396;2023-11-18T07:02:45;5.50;99.90
8400;DHT22;4237;47.030;15.396;2023-11-18T07:05:14;7.70;99.90
8400;DHT22;4237;47.030;15.396;2023-11-18T07:07:43;9.20;99.90
8400;DHT22;4237;47.030;15.396;2023-11-18T07:10:13;9.90;99.90
8400;DHT22;4237;47.030;15.396;2023-11-18T07:12:42;9.70;99.90
8400;DHT22;4237;47.030;15.396;2023-11-18T07:15:10;9.00;99.90
8400;DHT22;4237;47.030;15.396;2023-11-18T07:17:39;8.10;99.90
8400;DHT22;4237;47.030;15.396;2023-11-18T07:20:09;7.50;99.90
8400;DHT22;4237;47.030;15.396;2023-11-18T07:22:40;6.70;99.90
8400;DHT22;4237;47.030;15.396;2023-11-18T07:25:08;6.10;99.90
8400;DHT22;4237;47.030;15.396;2023-11-18T07:27:37;6.00;99.90
8400;DHT22;4237;47.030;15.396;2023-11-18T07:30:07;5.50;99.90
8400;DHT22;4237;47.030;15.396;2023-11-18T07:32:37;5.40;99.90
8400;DHT22;4237;47.030;15.396;2023-11-18T07:35:08;5.50;99.90
8400;DHT22;4237;47.030;15.396;2023-11-18T07:37:37;5.30;99.90
8400;DHT22;4237;47.030;15.396;2023-11-18T07:40:07;5.00;99.90
8400;DHT22;4237;47.030;15.396;2023-11-18T07:42:36;5.00;99.90
8400;DHT22;4237;47.030;15.396;2023-11-18T07:45:06;5.10;99.90
8400;DHT22;4237;47.030;15.396;2023-11-18T07:47:36;5.20;99.90
8400;DHT22;4237;47.030;15.396;2023-11-18T07:50:07;5.60;99.90
8400;DHT22;4237;47.030;15.396;2023-11-18T07:52:39;6.50;99.90
8400;DHT22;4237;47.030;15.396;2023-11-18T07:55:08;8.60;99.90
8400;DHT22;4237;47.030;15.396;2023-11-18T07:57:38;11.60;99.90
8400;DHT22;4237;47.030;15.396;2023-11-18T08:00:08;12.40;99.90
8400;DHT22;4237;47.030;15.396;2023-11-18T08:02:38;11.70;99.90
8400;DHT22;4237;47.030;15.396;2023-11-18T08:05:09;12.00;99.90
8400;DHT22;4237;47.030;15.396;2023-11-18T08:07:39;12.70;99.90
8400;DHT22;4237;47.030;15.396;2023-11-18T08:10:09;15.60;99.90
8400;DHT22;4237;47.030;15.396;2023-11-18T08:12:41;17.90;99.90
8400;DHT22;4237;47.030;15.396;2023-11-18T08:15:11;19.70;98.30
8400;DHT22;4237;47.030;15.396;2023-11-18T08:17:39;19.90;95.40
8400;DHT22;4237;47.030;15.396;2023-11-18T08:20:09;20.20;94.20
8400;DHT22;4237;47.030;15.396;2023-11-18T08:22:44;20.10;94.50
8400;DHT22;4237;47.030;15.396;2023-11-18T08:25:13;19.80;94.30
8400;DHT22;4237;47.030;15.396;2023-11-18T08:27:43;20.50;95.10
8400;DHT22;4237;47.030;15.396;2023-11-18T08:30:13;22.10;94.40
8400;DHT22;4237;47.030;15.396;2023-11-18T08:32:45;23.00;92.20
8400;DHT22;4237;47.030;15.396;2023-11-18T08:35:15;23.00;91.60
8400;DHT22;4237;47.030;15.396;2023-11-18T08:37:44;22.40;91.80
8400;DHT22;4237;47.030;15.396;2023-11-18T08:40:13;21.70;92.70
8400;DHT22;4237;47.030;15.396;2023-11-18T08:42:43;22.90;93.40
8400;DHT22;4237;47.030;15.396;2023-11-18T08:45:19;24.10;92.40
8400;DHT22;4237;47.030;15.396;2023-11-18T08:47:50;25.20;91.30
8400;DHT22;4237;47.030;15.396;2023-11-18T08:50:20;24.60;90.90
8400;DHT22;4237;47.030;15.396;2023-11-18T08:52:52;24.80;90.90
8400;DHT22;4237;47.030;15.396;2023-11-18T08:55:23;26.70;90.10
8400;DHT22;4237;47.030;15.396;2023-11-18T08:57:54;28.10;86.80
8400;DHT22;4237;47.030;15.396;2023-11-18T09:00:31;28.60;85.20
8400;DHT22;4237;47.030;15.396;2023-11-18T09:03:15;27.40;84.10
8400;DHT22;4237;47.030;15.396;2023-11-18T09:06:00;27.10;83.00
8400;DHT22;4237;47.030;15.396;2023-11-18T09:08:37;26.90;83.60
8400;DHT22;4237;47.030;15.396;2023-11-18T09:11:12;25.70;84.80
8400;DHT22;4237;47.030;15.396;2023-11-18T09:13:46;26.90;84.70
8400;DHT22;4237;47.030;15.396;2023-11-18T09:16:19;27.60;84.80
8400;DHT22;4237;47.030;15.396;2023-11-18T09:18:49;25.80;84.10
8400;DHT22;4237;47.030;15.396;2023-11-18T09:21:19;24.80;85.40
8400;DHT22;4237;47.030;15.396;2023-11-18T09:23:49;26.10;86.00
8400;DHT22;4237;47.030;15.396;2023-11-18T09:26:18;24.70;84.70
8400;DHT22;4237;47.030;15.396;2023-11-18T09:28:48;21.80;88.80
8400;DHT22;4237;47.030;15.396;2023-11-18T09:31:18;19.80;92.60
8400;DHT22;4237;47.030;15.396;2023-11-18T09:33:48;20.30;92.20
8400;DHT22;4237;47.030;15.396;2023-11-18T09:36:20;19.30;92.90
8400;DHT22;4237;47.030;15.396;2023-11-18T09:38:50;18.10;95.20
8400;DHT22;4237;47.030;15.396;2023-11-18T09:41:22;17.30;97.00
8400;DHT22;4237;47.030;15.396;2023-11-18T09:43:53;18.10;97.50
8400;DHT22;4237;47.030;15.396;2023-11-18T09:46:25;18.20;95.50
8400;DHT22;4237;47.030;15.396;2023-11-18T09:49:06;18.70;96.80
8400;DHT22;4237;47.030;15.396;2023-11-18T09:51:38;21.20;94.20
8400;DHT22;4237;47.030;15.396;2023-11-18T09:54:21;18.40;94.70
8400;DHT22;4237;47.030;15.396;2023-11-18T09:57:00;17.70;96.70
8400;DHT22;4237;47.030;15.396;2023-11-18T09:59:32;18.40;96.10
8400;DHT22;4237;47.030;15.396;2023-11-18T10:02:04;16.80;97.20
8400;DHT22;4237;47.030;15.396;2023-11-18T10:04:34;16.00;99.20
8400;DHT22;4237;47.030;15.396;2023-11-18T10:07:06;15.20;99.90
8400;DHT22;4237;47.030;15.396;2023-11-18T10:09:37;14.40;99.90
8400;DHT22;4237;47.030;15.396;2023-11-18T10:12:08;13.70;99.90
8400;DHT22;4237;47.030;15.396;2023-11-18T10:14:45;13.40;99.90
8400;DHT22;4237;47.030;15.396;2023-11-18T10:17:11;13.40;99.90
8400;DHT22;4237;47.030;15.396;2023-11-18T10:19:55;13.10;99.90
8400;DHT22;4237;47.030;15.396;2023-11-18T10:22:26;12.80;99.90
8400;DHT22;4237;47.030;15.396;2023-11-18T10:24:56;12.70;99.90
8400;DHT22;4237;47.030;15.396;2023-11-18T10:27:26;12.20;99.90
8400;DHT22;4237;47.030;15.396;2023-11-18T10:30:07;12.00;99.90
8400;DHT22;4237;47.030;15.396;2023-11-18T10:32:37;12.10;99.90
8400;DHT22;4237;47.030;15.396;2023-11-18T10:35:08;11.80;99.90
8400;DHT22;4237;47.030;15.396;2023-11-18T10:37:38;11.90;99.90
8400;DHT22;4237;47.030;15.396;2023-11-18T10:40:10;11.90;99.90
8400;DHT22;4237;47.030;15.396;2023-11-18T10:42:41;12.60;99.90
8400;DHT22;4237;47.030;15.396;2023-11-18T10:45:12;13.70;99.90
8400;DHT22;4237;47.030;15.396;2023-11-18T10:47:42;12.90;99.90
8400;DHT22;4237;47.030;15.396;2023-11-18T10:50:11;12.70;99.90
8400;DHT22;4237;47.030;15.396;2023-11-18T10:52:40;12.80;99.90
8400;DHT22;4237;47.030;15.396;2023-11-18T10:55:09;12.40;99.90
8400;DHT22;4237;47.030;15.396;2023-11-18T10:57:40;12.70;99.90
8400;DHT22;4237;47.030;15.396;2023-11-18T11:00:10;14.40;99.90
8400;DHT22;4237;47.030;15.396;2023-11-18T11:02:42;16.40;99.90
8400;DHT22;4237;47.030;15.396;2023-11-18T11:05:11;16.00;99.90
8400;DHT22;4237;47.030;15.396;2023-11-18T11:07:43;17.90;99.90
8400;DHT22;4237;47.030;15.396;2023-11-18T11:10:12;19.50;96.70
8400;DHT22;4237;47.030;15.396;2023-11-18T11:12:44;19.60;96.10
8400;DHT22;4237;47.030;15.396;2023-11-18T11:15:17;19.70;95.90
8400;DHT22;4237;47.030;15.396;2023-11-18T11:17:52;20.10;93.20
8400;DHT22;4237;47.030;15.396;2023-11-18T11:20:22;19.30;94.80
8400;DHT22;4237;47.030;15.396;2023-11-18T11:28:23;15.40;99.90
8400;DHT22;4237;47.030;15.396;2023-11-18T11:31:10;14.70;99.90
8400;DHT22;4237;47.030;15.396;2023-11-18T11:36:11;14.60;99.90
8400;DHT22;4237;47.030;15.396;2023-11-18T11:38:40;16.60;99.90
8400;DHT22;4237;47.030;15.396;2023-11-18T11:41:11;19.50;96.60
8400;DHT22;4237;47.030;15.396;2023-11-18T11:43:41;20.50;92.80
8400;DHT22;4237;47.030;15.396;2023-11-18T11:46:11;20.60;92.80
8400;DHT22;4237;47.030;15.396;2023-11-18T11:48:41;21.40;92.00
8400;DHT22;4237;47.030;15.396;2023-11-18T11:54:02;24.30;83.70
8400;DHT22;4237;47.030;15.396;2023-11-18T11:56:42;24.00;83.80
8400;DHT22;4237;47.030;15.396;2023-11-18T11:59:11;23.50;84.30
8400;DHT22;4237;47.030;15.396;2023-11-18T12:01:41;23.90;85.10
8400;DHT22;4237;47.030;15.396;2023-11-18T12:04:11;23.70;84.10
8400;DHT22;4237;47.030;15.396;2023-11-18T12:06:42;23.70;83.40
8400;DHT22;4237;47.030;15.396;2023-11-18T12:09:13;24.50;82.40
8400;DHT22;4237;47.030;15.396;2023-11-18T12:11:47;23.80;79.90
8400;DHT22;4237;47.030;15.396;2023-11-18T12:14:19;23.90;80.30
8400;DHT22;4237;47.030;15.396;2023-11-18T12:17:02;25.30;80.10
8400;DHT22;4237;47.030;15.396;2023-11-18T12:19:45;25.30;79.70
8400;DHT22;4237;47.030;15.396;2023-11-18T12:22:19;24.20;80.40
8400;DHT22;4237;47.030;15.396;2023-11-18T12:27:43;21.30;82.60
8400;DHT22;4237;47.030;15.396;2023-11-18T12:33:04;21.60;83.90
8400;DHT22;4237;47.030;15.396;2023-11-18T12:41:02;25.10;79.30
8400;DHT22;4237;47.030;15.396;2023-11-18T12:49:25;25.30;76.20
8400;DHT22;4237;47.030;15.396;2023-11-18T12:51:55;24.90;75.90
8400;DHT22;4237;47.030;15.396;2023-11-18T12:54:26;22.80;78.10
8400;DHT22;4237;47.030;15.396;2023-11-18T12:57:00;23.10;78.60
8400;DHT22;4237;47.030;15.396;2023-11-18T12:59:30;24.40;77.10
8400;DHT22;4237;47.030;15.396;2023-11-18T13:01:58;25.20;75.40
8400;DHT22;4237;47.030;15.396;2023-11-18T13:04:29;24.00;75.40
8400;DHT22;4237;47.030;15.396;2023-11-18T13:06:58;22.70;78.00
8400;DHT22;4237;47.030;15.396;2023-11-18T13:09:27;22.30;78.20
8400;DHT22;4237;47.030;15.396;2023-11-18T13:11:59;20.60;79.40
8400;DHT22;4237;47.030;15.396;2023-11-18T13:14:32;19.60;81.20
8400;DHT22;4237;47.030;15.396;2023-11-18T13:17:08;18.20;83.00
8400;DHT22;4237;47.030;15.396;2023-11-18T13:19:36;17.10;86.70
8400;DHT22;4237;47.030;15.396;2023-11-18T13:22:10;16.10;88.10
8400;DHT22;4237;47.030;15.396;2023-11-18T13:24:40;15.60;89.40
8400;DHT22;4237;47.030;15.396;2023-11-18T13:27:13;15.60;90.90
8400;DHT22;4237;47.030;15.396;2023-11-18T13:29:49;15.10;92.00
8400;DHT22;4237;47.030;15.396;2023-11-18T13:32:20;14.50;92.40
8400;DHT22;4237;47.030;15.396;2023-11-18T13:34:53;13.70;94.00
8400;DHT22;4237;47.030;15.396;2023-11-18T13:37:23;13.20;95.10
8400;DHT22;4237;47.030;15.396;2023-11-18T13:39:55;12.80;96.00
8400;DHT22;4237;47.030;15.396;2023-11-18T13:42:25;12.50;97.70
8400;DHT22;4237;47.030;15.396;2023-11-18T13:45:11;12.30;98.50
8400;DHT22;4237;47.030;15.396;2023-11-18T13:47:35;12.30;99.50
8400;DHT22;4237;47.030;15.396;2023-11-18T13:50:08;12.20;98.50
8400;DHT22;4237;47.030;15.396;2023-11-18T13:52:37;12.10;99.20
8400;DHT22;4237;47.030;15.396;2023-11-18T13:55:07;11.90;99.20
8400;DHT22;4237;47.030;15.396;2023-11-18T13:57:36;11.50;99.90
8400;DHT22;4237;47.030;15.396;2023-11-18T14:00:07;11.40;99.90
8400;DHT22;4237;47.030;15.396;2023-11-18T14:02:37;11.00;99.90
8400;DHT22;4237;47.030;15.396;2023-11-18T14:05:16;10.90;99.90
8400;DHT22;4237;47.030;15.396;2023-11-18T14:07:47;10.90;99.90
8400;DHT22;4237;47.030;15.396;2023-11-18T14:10:16;11.10;99.90
8400;DHT22;4237;47.030;15.396;2023-11-18T14:13:07;11.30;99.90
8400;DHT22;4237;47.030;15.396;2023-11-18T14:15:40;11.60;99.90
8400;DHT22;4237;47.030;15.396;2023-11-18T14:18:10;12.40;99.80
8400;DHT22;4237;47.030;15.396;2023-11-18T14:21:00;14.30;96.40
8400;DHT22;4237;47.030;15.396;2023-11-18T14:23:28;15.70;93.00
8400;DHT22;4237;47.030;15.396;2023-11-18T14:25:57;15.40;93.00
8400;DHT22;4237;47.030;15.396;2023-11-18T14:28:25;14.30;94.40
8400;DHT22;4237;47.030;15.396;2023-11-18T14:30:55;13.30;96.00
8400;DHT22;4237;47.030;15.396;2023-11-18T14:33:23;12.10;98.20
8400;DHT22;4237;47.030;15.396;2023-11-18T14:35:52;11.40;99.90
8400;DHT22;4237;47.030;15.396;2023-11-18T14:38:21;10.70;99.90
8400;DHT22;4237;47.030;15.396;2023-11-18T14:40:50;10.10;99.90
8400;DHT22;4237;47.030;15.396;2023-11-18T14:43:19;9.70;99.90
8400;DHT22;4237;47.030;15.396;2023-11-18T14:45:48;9.40;99.90
8400;DHT22;4237;47.030;15.396;2023-11-18T14:48:16;9.10;99.90
8400;DHT22;4237;47.030;15.396;2023-11-18T14:50:45;8.90;99.90
8400;DHT22;4237;47.030;15.396;2023-11-18T14:53:13;8.80;99.90
8400;DHT22;4237;47.030;15.396;2023-11-18T14:55:42;8.50;99.90
8400;DHT22;4237;47.030;15.396;2023-11-18T14:58:11;8.40;99.90
8400;DHT22;4237;47.030;15.396;2023-11-18T15:00:39;8.30;99.90
8400;DHT22;4237;47.030;15.396;2023-11-18T15:03:10;8.30;99.90
8400;DHT22;4237;47.030;15.396;2023-11-18T15:05:38;8.20;99.90
8400;DHT22;4237;47.030;15.396;2023-11-18T15:08:07;8.10;99.90
8400;DHT22;4237;47.030;15.396;2023-11-18T15:10:37;8.00;99.90
8400;DHT22;4237;47.030;15.396;2023-11-18T15:13:07;7.90;99.90
8400;DHT22;4237;47.030;15.396;2023-11-18T15:15:37;7.70;99.90
8400;DHT22;4237;47.030;15.396;2023-11-18T15:18:06;7.70;99.90
8400;DHT22;4237;47.030;15.396;2023-11-18T15:20:42;7.50;99.90
8400;DHT22;4237;47.030;15.396;2023-11-18T15:23:11;7.40;99.90
8400;DHT22;4237;47.030;15.396;2023-11-18T15:25:40;7.30;99.90
8400;DHT22;4237;47.030;15.396;2023-11-18T15:28:09;7.20;99.90
8400;DHT22;4237;47.030;15.396;2023-11-18T15:30:38;7.10;99.90
8400;DHT22;4237;47.030;15.396;2023-11-18T15:33:07;6.90;99.90
8400;DHT22;4237;47.030;15.396;2023-11-18T15:35:36;6.90;99.90
8400;DHT22;4237;47.030;15.396;2023-11-18T15:38:13;6.70;99.90
8400;DHT22;4237;47.030;15.396;2023-11-18T15:40:43;6.70;99.90
8400;DHT22;4237;47.030;15.396;2023-11-18T15:43:12;6.70;99.90
8400;DHT22;4237;47.030;15.396;2023-11-18T15:45:40;6.60;99.90
8400;DHT22;4237;47.030;15.396;2023-11-18T15:48:12;6.40;99.90
8400;DHT22;4237;47.030;15.396;2023-11-18T15:50:42;6.40;99.90
8400;DHT22;4237;47.030;15.396;2023-11-18T15:53:10;6.30;99.90
8400;DHT22;4237;47.030;15.396;2023-11-18T15:55:41;6.30;99.90
8400;DHT22;4237;47.030;15.396;2023-11-18T15:58:11;6.20;99.90
8400;DHT22;4237;47.030;15.396;2023-11-18T16:00:40;6.10;99.90
8400;DHT22;4237;47.030;15.396;2023-11-18T16:03:10;6.10;99.90
8400;DHT22;4237;47.030;15.396;2023-11-18T16:05:41;6.10;99.90
8400;DHT22;4237;47.030;15.396;2023-11-18T16:08:09;6.10;99.90
8400;DHT22;4237;47.030;15.396;2023-11-18T16:10:38;6.00;99.90
8400;DHT22;4237;47.030;15.396;2023-11-18T16:13:08;6.00;99.90
8400;DHT22;4237;47.030;15.396;2023-11-18T16:15:36;5.90;99.90
8400;DHT22;4237;47.030;15.396;2023-11-18T16:18:05;5.80;99.90
8400;DHT22;4237;47.030;15.396;2023-11-18T16:20:33;5.80;99.90
8400;DHT22;4237;47.030;15.396;2023-11-18T16:23:02;5.80;99.90
8400;DHT22;4237;47.030;15.396;2023-11-18T16:25:32;5.90;99.90
8400;DHT22;4237;47.030;15.396;2023-11-18T16:28:03;5.80;99.90
8400;DHT22;4237;47.030;15.396;2023-11-18T16:30:33;5.70;99.90
8400;DHT22;4237;47.030;15.396;2023-11-18T16:33:02;5.60;99.90
8400;DHT22;4237;47.030;15.396;2023-11-18T16:35:35;5.60;99.90
8400;DHT22;4237;47.030;15.396;2023-11-18T16:38:04;5.80;99.90
8400;DHT22;4237;47.030;15.396;2023-11-18T16:40:35;5.70;99.90
8400;DHT22;4237;47.030;15.396;2023-11-18T16:43:04;5.60;99.90
8400;DHT22;4237;47.030;15.396;2023-11-18T16:45:32;5.60;99.90
8400;DHT22;4237;47.030;15.396;2023-11-18T16:48:01;5.60;99.90